Time;durP1;ratioP1;P1;durP2;ratioP2;P2;SDS_P1;SDS_P2;PMS_P1;PMS_P2;Temp;Humidity;BMP_temperature;BMP_pressure;BME280_temperature;BME280_humidity;BME280_pressure;Samples;Min_cycle;Max_cycle;Signal;HPM_P1;HPM_P2
2020/12/11 00:01:42;;;;;;;15.20;13.57;;;7.30;61.80;;;;;;5032570;28;20467;-76
2020/12/11 00:04:08;;;;;;;17.13;12.30;;;7.20;61.30;;;;;;5030853;28;20453;-77
2020/12/11 00:06:35;;;;;;;19.40;15.23;;;7.20;61.50;;;;;;5032718;28;20462;-77
2020/12/11 00:09:02;;;;;;;17.07;14.47;;;7.20;61.50;;;;;;5032613;28;20955;-77
2020/12/11 00:11:30;;;;;;;16.70;13.90;;;7.20;61.40;;;;;;5032489;28;20456;-77
2020/12/11 00:13:57;;;;;;;17.27;14.77;;;7.20;61.40;;;;;;5032441;28;20456;-77
2020/12/11 00:16:25;;;;;;;18.53;15.73;;;7.20;61.20;;;;;;5032409;28;20456;-77
2020/12/11 00:18:51;;;;;;;14.90;12.90;;;7.30;61.20;;;;;;5032363;28;20464;-77
2020/12/11 00:21:18;;;;;;;15.67;14.03;;;7.30;61.10;;;;;;5032078;28;20453;-78
2020/12/11 00:23:45;;;;;;;16.77;13.70;;;7.30;61.10;;;;;;5036043;28;20457;-78
2020/12/11 00:26:11;;;;;;;17.40;13.57;;;7.30;61.20;;;;;;5036226;28;20541;-77
2020/12/11 00:28:38;;;;;;;17.20;14.90;;;7.30;61.10;;;;;;5036483;28;20453;-78
2020/12/11 00:31:05;;;;;;;17.27;13.60;;;7.20;60.90;;;;;;5034474;28;20456;-77
2020/12/11 00:33:32;;;;;;;13.67;11.97;;;7.20;61.00;;;;;;5036167;28;20453;-77
2020/12/11 00:35:59;;;;;;;15.77;13.83;;;7.20;61.00;;;;;;5035811;28;20964;-77
2020/12/11 00:38:29;;;;;;;16.27;12.70;;;7.20;60.70;;;;;;5036042;28;20845;-77
2020/12/11 00:40:56;;;;;;;16.10;13.50;;;7.20;60.80;;;;;;5035846;28;20989;-77
2020/12/11 00:43:22;;;;;;;15.57;13.60;;;7.20;60.90;;;;;;5035701;28;20454;-77
2020/12/11 00:45:49;;;;;;;15.23;13.30;;;7.10;60.90;;;;;;5035761;28;20444;-78
2020/12/11 00:48:16;;;;;;;13.73;12.27;;;7.10;60.90;;;;;;5035668;28;20451;-77
2020/12/11 00:50:43;;;;;;;15.27;13.67;;;7.10;60.70;;;;;;5035441;28;20458;-79
2020/12/11 00:53:09;;;;;;;12.93;11.50;;;7.10;60.80;;;;;;5035674;28;20446;-77
2020/12/11 00:55:36;;;;;;;14.27;12.90;;;7.10;60.60;;;;;;5035776;28;20944;-77
2020/12/11 00:58:02;;;;;;;12.90;11.40;;;7.10;60.50;;;;;;5034075;28;20493;-77
2020/12/11 01:00:29;;;;;;;12.00;10.77;;;7.10;60.30;;;;;;5035467;28;20929;-78
2020/12/11 01:02:55;;;;;;;11.60;10.17;;;7.00;60.20;;;;;;5035702;28;20460;-78
2020/12/11 01:05:22;;;;;;;12.50;10.67;;;7.00;60.00;;;;;;5035566;28;20564;-77
2020/12/11 01:07:49;;;;;;;13.10;11.77;;;7.00;59.80;;;;;;5035205;28;20448;-76
2020/12/11 01:10:16;;;;;;;11.20;10.00;;;6.90;60.00;;;;;;5035496;28;20453;-77
2020/12/11 01:12:42;;;;;;;11.63;10.43;;;6.90;59.70;;;;;;5035356;28;20825;-77
2020/12/11 01:15:09;;;;;;;13.43;11.40;;;6.80;59.90;;;;;;5035056;28;20457;-77
2020/12/11 01:17:35;;;;;;;11.13;10.13;;;6.90;60.00;;;;;;5035102;28;20492;-76
2020/12/11 01:20:03;;;;;;;11.40;10.30;;;6.80;59.70;;;;;;5035126;28;20446;-77
2020/12/11 01:22:30;;;;;;;11.00;9.90;;;6.80;59.60;;;;;;5034495;28;20444;-76
2020/12/11 01:24:57;;;;;;;12.43;11.13;;;6.80;59.80;;;;;;5033934;28;20933;-76
2020/12/11 01:27:24;;;;;;;13.07;11.77;;;6.80;59.80;;;;;;5034969;28;20490;-76
2020/12/11 01:29:50;;;;;;;10.20;9.30;;;6.80;59.60;;;;;;5035022;28;20457;-77
2020/12/11 01:32:17;;;;;;;11.73;10.50;;;6.80;59.70;;;;;;5035157;28;20450;-77
2020/12/11 01:34:43;;;;;;;11.53;10.20;;;6.80;59.60;;;;;;5033917;28;20794;-77
2020/12/11 01:37:10;;;;;;;10.50;9.43;;;6.80;59.50;;;;;;5034667;28;21015;-77
2020/12/11 01:39:36;;;;;;;12.40;10.80;;;6.70;59.20;;;;;;5034742;28;20444;-77
2020/12/11 01:42:09;;;;;;;11.73;10.63;;;6.70;59.10;;;;;;5034821;28;20477;-77
2020/12/11 01:44:36;;;;;;;13.20;11.90;;;6.60;59.20;;;;;;5034657;28;20493;-77
2020/12/11 01:47:03;;;;;;;12.63;11.33;;;6.60;59.20;;;;;;5034657;28;20469;-77
2020/12/11 01:49:30;;;;;;;13.20;10.50;;;6.50;59.40;;;;;;5032921;28;20847;-77
2020/12/11 01:51:57;;;;;;;12.40;11.10;;;6.50;59.70;;;;;;5034469;28;20473;-78
2020/12/11 01:54:24;;;;;;;14.53;11.30;;;6.50;59.80;;;;;;5034371;28;20819;-78
2020/12/11 01:57:02;;;;;;;11.30;10.30;;;6.50;59.60;;;;;;5034412;28;20847;-76
2020/12/11 01:59:36;;;;;;;15.27;11.60;;;6.50;59.80;;;;;;5034540;28;20456;-77
2020/12/11 02:02:05;;;;;;;11.70;10.50;;;6.50;59.80;;;;;;5034183;28;20536;-77
2020/12/11 02:04:33;;;;;;;12.57;10.80;;;6.50;59.80;;;;;;5034448;28;20445;-77
2020/12/11 02:07:00;;;;;;;11.57;10.43;;;6.50;59.80;;;;;;5034113;28;20940;-78
2020/12/11 02:09:26;;;;;;;11.77;10.57;;;6.50;59.90;;;;;;5034278;28;20457;-77
2020/12/11 02:11:53;;;;;;;11.20;10.20;;;6.50;59.80;;;;;;5034152;28;20450;-76
2020/12/11 02:14:20;;;;;;;12.67;11.37;;;6.50;60.00;;;;;;5034484;28;20887;-78
2020/12/11 02:16:47;;;;;;;11.43;10.33;;;6.50;59.60;;;;;;5032454;28;20447;-78
2020/12/11 02:19:14;;;;;;;12.20;11.00;;;6.40;59.90;;;;;;5034165;28;20535;-78
2020/12/11 02:21:41;;;;;;;12.37;11.07;;;6.40;59.90;;;;;;5033732;28;20847;-77
2020/12/11 02:24:08;;;;;;;13.63;12.23;;;6.40;60.20;;;;;;5033952;28;20448;-77
2020/12/11 02:26:34;;;;;;;11.83;10.60;;;6.40;60.10;;;;;;5033874;28;20864;-76
2020/12/11 02:29:01;;;;;;;10.70;9.50;;;6.40;60.00;;;;;;5033618;28;20449;-76
2020/12/11 02:31:27;;;;;;;13.10;11.10;;;6.40;60.10;;;;;;5033922;28;20453;-76
2020/12/11 02:33:54;;;;;;;11.83;10.40;;;6.30;60.10;;;;;;5033783;28;20988;-77
2020/12/11 02:36:21;;;;;;;15.10;12.63;;;6.30;60.20;;;;;;5033476;28;20456;-77
2020/12/11 02:38:49;;;;;;;13.37;12.03;;;6.30;60.30;;;;;;5033435;28;20489;-78
2020/12/11 02:41:15;;;;;;;13.37;11.77;;;6.30;60.60;;;;;;5032820;28;20460;-77
2020/12/11 02:43:43;;;;;;;12.40;10.83;;;6.30;60.60;;;;;;5032847;28;20450;-77
2020/12/11 02:46:09;;;;;;;12.03;10.70;;;6.30;60.50;;;;;;5033047;28;20464;-77
2020/12/11 02:48:36;;;;;;;14.43;11.50;;;6.30;60.50;;;;;;5033436;28;20810;-76
2020/12/11 02:51:03;;;;;;;12.23;11.10;;;6.30;60.50;;;;;;5033049;28;20479;-76
2020/12/11 02:53:29;;;;;;;14.57;11.80;;;6.30;60.40;;;;;;5033284;28;20445;-77
2020/12/11 02:55:59;;;;;;;15.00;10.50;;;6.30;60.30;;;;;;5033197;28;20464;-76
2020/12/11 02:58:25;;;;;;;12.03;10.47;;;6.30;60.40;;;;;;5033356;28;20916;-77
2020/12/11 03:00:52;;;;;;;15.20;11.40;;;6.30;60.40;;;;;;5033342;28;20511;-78
2020/12/11 03:03:18;;;;;;;13.23;11.83;;;6.30;60.60;;;;;;5033320;28;20446;-78
2020/12/11 03:05:45;;;;;;;15.70;11.30;;;6.20;60.60;;;;;;5033284;28;20457;-78
2020/12/11 03:08:12;;;;;;;14.17;12.50;;;6.20;60.60;;;;;;5031413;28;20445;-78
2020/12/11 03:10:38;;;;;;;14.17;12.27;;;6.20;60.80;;;;;;5033105;28;20950;-76
2020/12/11 03:13:05;;;;;;;12.30;11.10;;;6.20;61.20;;;;;;5033199;28;20456;-77
2020/12/11 03:15:32;;;;;;;14.40;11.93;;;6.10;61.40;;;;;;5033050;28;20455;-77
2020/12/11 03:17:58;;;;;;;12.67;11.33;;;6.00;61.20;;;;;;5032946;28;20492;-76
2020/12/11 03:20:25;;;;;;;14.00;12.27;;;6.00;61.50;;;;;;5033090;28;20460;-77
2020/12/11 03:22:52;;;;;;;13.07;11.60;;;6.00;61.60;;;;;;5032771;28;20503;-76
2020/12/11 03:25:19;;;;;;;14.63;12.63;;;6.00;61.60;;;;;;5032844;28;20504;-76
2020/12/11 03:27:46;;;;;;;13.80;12.27;;;6.00;61.50;;;;;;5032675;28;20472;-77
2020/12/11 03:30:14;;;;;;;14.80;12.57;;;6.00;61.50;;;;;;5032600;28;20472;-77
2020/12/11 03:32:40;;;;;;;12.50;11.17;;;6.00;61.70;;;;;;5032627;28;20944;-77
2020/12/11 03:35:07;;;;;;;15.87;12.03;;;6.00;62.30;;;;;;5030948;28;20448;-77
2020/12/11 03:37:33;;;;;;;14.53;11.90;;;6.10;61.80;;;;;;5032340;28;21032;-77
2020/12/11 03:40:00;;;;;;;14.53;11.20;;;6.00;61.70;;;;;;5032649;28;20445;-77
2020/12/11 03:42:27;;;;;;;14.70;12.10;;;6.00;61.90;;;;;;5032435;28;20477;-77
2020/12/11 03:44:53;;;;;;;13.63;12.37;;;6.00;61.90;;;;;;5032523;28;20444;-77
2020/12/11 03:47:21;;;;;;;14.07;11.70;;;6.00;62.00;;;;;;5032480;28;20452;-76
2020/12/11 03:49:48;;;;;;;13.97;11.80;;;6.00;62.10;;;;;;5032319;28;20461;-77
2020/12/11 03:52:14;;;;;;;14.17;12.30;;;6.00;62.10;;;;;;5032011;28;21188;-77
2020/12/11 03:54:41;;;;;;;14.77;12.73;;;6.00;62.30;;;;;;5032343;28;20456;-77
2020/12/11 03:57:07;;;;;;;16.70;12.90;;;6.00;62.30;;;;;;5033288;28;20453;-77
2020/12/11 03:59:34;;;;;;;15.80;13.13;;;6.00;62.40;;;;;;5036436;28;20797;-77
2020/12/11 04:02:00;;;;;;;14.87;12.63;;;5.90;62.30;;;;;;5034852;28;20823;-77
2020/12/11 04:04:28;;;;;;;15.00;12.40;;;5.90;62.40;;;;;;5036357;28;20457;-76
2020/12/11 04:06:54;;;;;;;15.53;13.33;;;6.00;62.40;;;;;;5036205;28;20460;-76
2020/12/11 04:09:21;;;;;;;14.13;12.13;;;5.90;62.30;;;;;;5036247;28;20451;-77
2020/12/11 04:11:47;;;;;;;16.40;13.90;;;5.90;62.30;;;;;;5036286;28;20470;-77
2020/12/11 04:14:14;;;;;;;14.53;12.77;;;5.90;62.80;;;;;;5036171;28;20459;-77
2020/12/11 04:16:40;;;;;;;18.43;13.87;;;5.90;62.70;;;;;;5036151;28;20457;-76
2020/12/11 04:19:07;;;;;;;15.40;12.90;;;5.90;62.80;;;;;;5036212;28;20499;-77
2020/12/11 04:21:34;;;;;;;15.30;12.77;;;5.90;62.90;;;;;;5036018;28;20986;-76
2020/12/11 04:24:01;;;;;;;19.23;14.53;;;5.90;63.10;;;;;;5036126;28;20452;-78
2020/12/11 04:26:27;;;;;;;15.80;13.00;;;5.90;63.10;;;;;;5034365;28;20489;-77
2020/12/11 04:28:54;;;;;;;16.83;13.10;;;5.90;62.90;;;;;;5036127;28;20443;-77
2020/12/11 04:31:20;;;;;;;15.33;13.70;;;5.90;62.90;;;;;;5035731;28;20445;-77
2020/12/11 04:33:47;;;;;;;19.47;14.20;;;5.90;62.80;;;;;;5028337;28;20460;-77
2020/12/11 04:36:17;;;;;;;17.57;12.73;;;5.90;62.50;;;;;;5030938;28;20547;-77
2020/12/11 04:38:47;;;;;;;17.60;13.93;;;5.90;62.50;;;;;;5035419;28;20550;-77
2020/12/11 04:41:14;;;;;;;16.00;12.63;;;5.80;62.40;;;;;;5035480;28;20499;-77
2020/12/11 04:43:41;;;;;;;17.17;13.83;;;5.80;62.60;;;;;;5035477;28;20543;-76
2020/12/11 04:46:08;;;;;;;15.37;13.73;;;5.80;62.80;;;;;;5034783;28;20514;-77
2020/12/11 04:48:35;;;;;;;16.87;14.13;;;5.80;63.00;;;;;;5035447;28;20485;-77
2020/12/11 04:51:03;;;;;;;17.37;14.73;;;5.70;62.90;;;;;;5037524;28;20450;-78
2020/12/11 04:53:33;;;;;;;15.87;12.70;;;5.70;63.00;;;;;;5053403;28;20483;-78
2020/12/11 04:56:02;;;;;;;18.97;14.37;;;5.60;62.70;;;;;;5046889;28;20454;-78
2020/12/11 04:58:30;;;;;;;17.07;13.63;;;5.50;62.80;;;;;;5055008;28;20486;-78
2020/12/11 05:01:05;;;;;;;18.00;14.80;;;5.50;63.00;;;;;;5048363;28;21020;-77
2020/12/11 05:03:33;;;;;;;21.33;14.33;;;5.40;63.20;;;;;;5035553;28;20447;-78
2020/12/11 05:06:00;;;;;;;18.47;14.17;;;5.40;63.40;;;;;;5035807;28;20465;-78
2020/12/11 05:08:27;;;;;;;16.20;13.63;;;5.40;63.40;;;;;;5034627;28;20795;-78
2020/12/11 05:10:53;;;;;;;20.30;14.03;;;5.40;63.50;;;;;;5039514;28;20818;-78
2020/12/11 05:13:23;;;;;;;14.27;12.53;;;5.40;63.50;;;;;;5040717;28;20454;-78
2020/12/11 05:16:09;;;;;;;18.60;14.17;;;5.40;63.60;;;;;;5035051;28;21008;-78
2020/12/11 05:18:39;;;;;;;20.40;15.13;;;5.40;63.70;;;;;;5034784;28;20585;-77
2020/12/11 05:21:17;;;;;;;20.30;14.83;;;5.30;63.50;;;;;;5043209;28;20804;-78
2020/12/11 05:23:59;;;;;;;19.10;15.27;;;5.30;63.60;;;;;;5054796;28;22408;-78
2020/12/11 05:26:27;;;;;;;18.40;14.20;;;5.30;63.60;;;;;;5045860;28;20465;-78
2020/12/11 05:28:55;;;;;;;17.60;14.67;;;5.30;63.60;;;;;;5054615;28;20460;-78
2020/12/11 05:31:21;;;;;;;21.17;14.83;;;5.30;63.80;;;;;;5052813;28;20453;-78
2020/12/11 05:34:09;;;;;;;17.70;13.87;;;5.30;63.70;;;;;;5054099;28;20449;-78
2020/12/11 05:36:50;;;;;;;18.53;14.27;;;5.30;63.80;;;;;;5040896;28;21041;-78
2020/12/11 05:39:30;;;;;;;20.03;14.43;;;5.30;63.90;;;;;;5034470;28;20489;-76
2020/12/11 05:41:57;;;;;;;18.20;13.13;;;5.30;63.80;;;;;;5047776;28;20531;-78
2020/12/11 05:44:29;;;;;;;17.07;14.33;;;5.30;63.80;;;;;;5034367;28;20454;-79
2020/12/11 05:46:56;;;;;;;19.73;15.00;;;5.30;63.70;;;;;;5032647;28;20957;-78
2020/12/11 05:49:28;;;;;;;17.03;13.77;;;5.20;63.30;;;;;;5049033;28;20454;-78
2020/12/11 05:52:10;;;;;;;20.40;15.93;;;5.20;63.30;;;;;;5037188;28;20480;-78
2020/12/11 05:54:42;;;;;;;18.67;15.20;;;5.20;63.30;;;;;;5034104;28;20490;-78
2020/12/11 05:57:10;;;;;;;18.33;15.23;;;5.20;63.40;;;;;;5033410;28;20881;-78
2020/12/11 05:59:38;;;;;;;20.67;15.10;;;5.20;63.50;;;;;;5034303;28;20525;-77
2020/12/11 06:02:05;;;;;;;19.30;14.33;;;5.20;63.50;;;;;;5033596;28;20455;-78
2020/12/11 06:04:32;;;;;;;21.30;14.30;;;5.20;63.60;;;;;;5033459;28;20453;-76
2020/12/11 06:07:00;;;;;;;20.90;14.63;;;5.20;63.70;;;;;;5032288;28;20455;-76
2020/12/11 06:09:38;;;;;;;17.37;13.57;;;5.20;63.40;;;;;;5033596;28;20456;-77
2020/12/11 06:12:07;;;;;;;22.33;16.33;;;5.20;63.30;;;;;;5039424;28;20943;-77
2020/12/11 06:14:59;;;;;;;21.00;14.40;;;5.10;63.10;;;;;;5044493;28;20457;-78
2020/12/11 06:17:28;;;;;;;18.00;13.80;;;5.10;63.30;;;;;;4994851;28;20451;-79
2020/12/11 06:19:57;;;;;;;16.33;13.40;;;5.10;63.30;;;;;;5034467;28;20561;-78
2020/12/11 06:22:23;;;;;;;20.90;15.00;;;5.10;63.40;;;;;;5030918;28;20460;-77
2020/12/11 06:24:50;;;;;;;20.70;15.30;;;5.10;63.30;;;;;;5035166;28;20466;-77
2020/12/11 06:27:30;;;;;;;17.17;13.33;;;5.10;63.30;;;;;;5034210;28;20545;-76
2020/12/11 06:29:58;;;;;;;15.70;14.00;;;5.10;63.40;;;;;;5033252;28;20546;-76
2020/12/11 06:32:34;;;;;;;19.70;14.57;;;5.10;63.40;;;;;;5032767;28;20544;-76
2020/12/11 06:35:11;;;;;;;21.33;14.67;;;5.10;63.10;;;;;;5034766;28;20513;-77
2020/12/11 06:37:38;;;;;;;17.70;13.93;;;5.10;63.10;;;;;;5039070;28;20491;-76
2020/12/11 06:40:05;;;;;;;19.53;13.50;;;5.10;63.50;;;;;;5032915;28;20835;-76
2020/12/11 06:42:43;;;;;;;18.23;14.00;;;5.10;63.40;;;;;;5039488;28;20954;-77
2020/12/11 06:45:23;;;;;;;17.03;12.43;;;5.10;63.10;;;;;;5020775;28;20452;-76
2020/12/11 06:47:55;;;;;;;16.40;12.70;;;5.00;62.80;;;;;;5013401;28;20452;-76
2020/12/11 06:50:25;;;;;;;14.00;11.93;;;4.90;62.70;;;;;;5024723;28;20455;-76
2020/12/11 06:52:52;;;;;;;16.07;12.80;;;4.90;63.40;;;;;;5034587;28;20486;-77
2020/12/11 06:55:18;;;;;;;17.20;11.90;;;4.80;63.30;;;;;;5033273;28;20461;-77
2020/12/11 06:57:47;;;;;;;16.50;12.20;;;4.90;63.40;;;;;;5032128;28;20481;-77
2020/12/11 07:00:35;;;;;;;18.90;14.03;;;4.90;63.00;;;;;;5036390;28;20461;-78
2020/12/11 07:03:30;;;;;;;18.50;12.20;;;4.90;62.70;;;;;;5042760;28;20530;-77
2020/12/11 07:06:02;;;;;;;17.20;13.90;;;4.90;62.90;;;;;;5027927;28;20450;-76
2020/12/11 07:08:28;;;;;;;16.07;12.50;;;4.90;62.90;;;;;;5025296;28;20461;-78
2020/12/11 07:11:02;;;;;;;13.90;12.33;;;5.00;63.20;;;;;;5033393;28;20463;-77
2020/12/11 07:13:29;;;;;;;14.90;12.10;;;5.00;62.60;;;;;;5032664;28;20450;-78
2020/12/11 07:16:01;;;;;;;20.07;13.93;;;5.00;62.80;;;;;;5032266;28;20459;-78
2020/12/11 07:18:27;;;;;;;16.60;12.90;;;5.00;62.50;;;;;;5029410;28;20497;-78
2020/12/11 07:20:56;;;;;;;20.10;14.60;;;5.00;62.50;;;;;;5033589;28;20468;-77
2020/12/11 07:23:22;;;;;;;17.57;13.07;;;5.10;62.70;;;;;;5040667;28;20470;-78
2020/12/11 07:25:51;;;;;;;19.40;11.83;;;5.10;62.60;;;;;;5044432;28;20503;-77
2020/12/11 07:28:18;;;;;;;16.50;12.77;;;5.10;62.30;;;;;;5035292;28;20935;-77
2020/12/11 07:30:45;;;;;;;14.27;11.80;;;5.10;62.30;;;;;;5033380;28;20462;-77
2020/12/11 07:33:13;;;;;;;19.20;13.40;;;5.10;62.10;;;;;;5031462;28;20951;-77
2020/12/11 07:35:45;;;;;;;15.40;12.80;;;5.00;61.90;;;;;;5029414;28;20491;-77
2020/12/11 07:38:11;;;;;;;17.37;12.33;;;4.90;62.00;;;;;;5018488;28;20872;-77
2020/12/11 07:40:38;;;;;;;16.73;12.77;;;4.90;62.20;;;;;;5030256;28;20945;-78
2020/12/11 07:43:05;;;;;;;16.10;14.43;;;5.00;62.40;;;;;;5031842;28;20486;-79
2020/12/11 07:45:35;;;;;;;15.00;12.17;;;5.10;62.40;;;;;;5032229;28;20451;-78
2020/12/11 07:48:02;;;;;;;16.43;13.03;;;5.20;62.50;;;;;;5027121;28;20463;-78
2020/12/11 07:50:31;;;;;;;15.13;11.77;;;5.10;62.00;;;;;;5043446;28;20546;-78
2020/12/11 07:52:59;;;;;;;16.90;13.00;;;5.20;61.90;;;;;;5043999;28;20822;-76
2020/12/11 07:55:29;;;;;;;17.97;13.57;;;5.20;61.70;;;;;;5033294;28;20457;-78
2020/12/11 07:57:57;;;;;;;13.83;11.80;;;5.20;61.80;;;;;;5031898;28;20522;-78
2020/12/11 08:00:24;;;;;;;17.00;13.40;;;5.20;61.90;;;;;;5031317;28;20447;-77
2020/12/11 08:02:55;;;;;;;17.77;12.53;;;5.20;61.80;;;;;;5031148;28;20451;-78
2020/12/11 08:05:23;;;;;;;15.97;13.10;;;5.10;61.70;;;;;;5036855;28;20509;-77
2020/12/11 08:07:52;;;;;;;16.10;13.67;;;5.20;62.20;;;;;;5031353;28;20557;-77
2020/12/11 08:10:20;;;;;;;17.57;14.10;;;5.30;62.10;;;;;;5030895;28;20460;-77
2020/12/11 08:12:47;;;;;;;19.40;14.27;;;5.30;62.10;;;;;;5026620;28;20481;-79
2020/12/11 08:15:31;;;;;;;20.07;14.07;;;5.40;61.80;;;;;;5037329;28;20874;-80
2020/12/11 08:18:13;;;;;;;16.00;13.43;;;5.50;61.80;;;;;;5040403;28;20506;-79
2020/12/11 08:20:44;;;;;;;14.90;13.00;;;5.50;61.60;;;;;;5028565;28;20456;-80
2020/12/11 08:23:25;;;;;;;17.80;13.00;;;5.60;61.40;;;;;;5034876;28;20444;-80
2020/12/11 08:26:22;;;;;;;16.80;12.93;;;5.50;60.70;;;;;;5023912;28;20455;-80
2020/12/11 08:28:50;;;;;;;17.53;13.03;;;5.40;60.80;;;;;;5028749;28;20454;-78
2020/12/11 08:31:25;;;;;;;15.30;13.03;;;5.30;61.10;;;;;;5032207;28;20460;-79
2020/12/11 08:34:01;;;;;;;15.50;12.60;;;5.40;61.60;;;;;;5036049;28;20458;-79
2020/12/11 08:36:29;;;;;;;18.17;13.50;;;5.50;61.70;;;;;;5044069;28;20462;-78
2020/12/11 08:39:12;;;;;;;17.67;13.23;;;5.50;61.30;;;;;;5031769;28;20505;-78
2020/12/11 08:41:42;;;;;;;19.33;13.80;;;5.60;61.00;;;;;;5036178;28;20483;-78
2020/12/11 08:44:17;;;;;;;15.30;11.63;;;5.60;60.80;;;;;;5035087;28;20456;-78
2020/12/11 08:46:58;;;;;;;17.33;11.87;;;5.70;61.00;;;;;;5036151;28;20455;-78
2020/12/11 08:49:44;;;;;;;17.13;12.83;;;5.80;61.00;;;;;;5033709;28;20963;-77
2020/12/11 08:52:12;;;;;;;16.17;13.50;;;5.90;60.90;;;;;;5034778;28;20484;-79
2020/12/11 08:54:39;;;;;;;16.50;12.03;;;6.00;60.80;;;;;;5029097;28;20467;-81
2020/12/11 08:57:06;;;;;;;14.23;11.63;;;6.10;60.30;;;;;;5034999;28;20449;-81
2020/12/11 08:59:33;;;;;;;19.63;13.50;;;6.10;60.20;;;;;;5033882;28;20485;-80
2020/12/11 09:02:01;;;;;;;17.53;14.00;;;6.10;59.70;;;;;;5035116;28;20460;-81
2020/12/11 09:04:28;;;;;;;14.43;11.57;;;6.10;59.60;;;;;;5034120;28;20457;-81
2020/12/11 09:06:54;;;;;;;18.50;13.50;;;6.20;59.80;;;;;;5034693;28;20466;-79
2020/12/11 09:09:21;;;;;;;17.70;13.50;;;6.20;59.60;;;;;;5033617;28;20473;-79
2020/12/11 09:11:51;;;;;;;17.70;12.97;;;6.30;59.40;;;;;;5034356;28;20461;-79
2020/12/11 09:14:18;;;;;;;16.20;12.37;;;6.40;59.60;;;;;;5034808;28;20458;-79
2020/12/11 09:16:44;;;;;;;16.50;12.40;;;6.50;59.60;;;;;;5033917;28;20462;-79
2020/12/11 09:19:11;;;;;;;17.07;12.70;;;6.60;59.40;;;;;;5034721;28;20484;-79
2020/12/11 09:21:38;;;;;;;13.77;10.77;;;6.60;59.20;;;;;;5033183;28;20841;-79
2020/12/11 09:24:05;;;;;;;19.17;13.77;;;6.60;58.70;;;;;;5034214;28;20494;-79
2020/12/11 09:26:32;;;;;;;15.97;12.00;;;6.60;58.40;;;;;;5030114;28;20475;-79
2020/12/11 09:29:08;;;;;;;19.47;14.07;;;6.60;58.70;;;;;;5034529;28;20460;-79
2020/12/11 09:31:35;;;;;;;16.20;12.40;;;6.60;58.70;;;;;;5026686;28;20457;-79
2020/12/11 09:34:02;;;;;;;16.90;14.07;;;6.70;58.90;;;;;;5034858;28;20958;-79
2020/12/11 09:36:28;;;;;;;15.10;11.87;;;6.70;58.90;;;;;;5034736;28;20466;-79
2020/12/11 09:38:55;;;;;;;17.53;13.00;;;6.70;58.70;;;;;;5034716;28;20518;-79
2020/12/11 09:41:27;;;;;;;16.23;11.57;;;6.70;58.60;;;;;;5034397;28;20827;-79
2020/12/11 09:46:46;;;;;;;17.43;11.90;;;6.80;58.80;;;;;;5030965;28;20963;-79
2020/12/11 09:49:14;;;;;;;15.17;12.43;;;6.80;58.70;;;;;;5032843;28;20532;-79
2020/12/11 09:54:27;;;;;;;12.67;9.43;;;7.00;58.60;;;;;;5030893;28;20877;-80
2020/12/11 09:56:55;;;;;;;20.60;13.13;;;7.10;58.40;;;;;;5034338;28;20585;-80
2020/12/11 09:59:27;;;;;;;19.00;11.73;;;7.10;58.20;;;;;;5034103;28;20500;-79
2020/12/11 10:02:09;;;;;;;14.60;11.40;;;7.20;57.90;;;;;;5034389;28;20447;-79
2020/12/11 10:04:36;;;;;;;17.90;13.17;;;7.30;57.90;;;;;;5035025;28;20564;-79
2020/12/11 10:07:02;;;;;;;17.10;12.37;;;7.30;57.70;;;;;;5034243;28;20793;-79
2020/12/11 10:09:29;;;;;;;16.07;12.50;;;7.40;57.70;;;;;;5034171;28;20449;-80
2020/12/11 10:11:56;;;;;;;15.10;11.50;;;7.40;57.70;;;;;;5033670;28;20444;-79
2020/12/11 10:14:30;;;;;;;16.60;12.77;;;7.50;57.40;;;;;;5031435;28;20534;-78
2020/12/11 10:16:58;;;;;;;13.50;10.80;;;7.60;57.40;;;;;;5033222;28;20502;-80
2020/12/11 10:19:25;;;;;;;18.53;11.50;;;7.70;57.20;;;;;;5033575;28;20484;-79
2020/12/11 10:21:53;;;;;;;16.50;11.77;;;7.70;57.20;;;;;;5033872;28;20447;-78
2020/12/11 10:24:20;;;;;;;13.17;11.77;;;7.80;56.90;;;;;;5033632;28;20453;-78
2020/12/11 10:26:47;;;;;;;15.67;10.77;;;7.80;56.70;;;;;;5033842;28;20444;-78
2020/12/11 10:29:14;;;;;;;16.70;11.57;;;7.80;56.70;;;;;;5033986;28;20447;-79
2020/12/11 10:31:42;;;;;;;11.70;9.33;;;7.90;56.90;;;;;;5034000;28;20449;-79
2020/12/11 10:34:10;;;;;;;15.67;11.53;;;7.90;56.20;;;;;;5033780;28;20447;-79
2020/12/11 10:36:37;;;;;;;18.43;11.40;;;7.90;56.30;;;;;;5033476;28;20447;-79
2020/12/11 10:39:04;;;;;;;12.40;10.17;;;7.80;56.40;;;;;;5033846;28;20495;-80
2020/12/11 10:41:31;;;;;;;17.67;10.77;;;7.80;56.60;;;;;;5032287;28;20444;-79
2020/12/11 10:44:00;;;;;;;13.00;9.73;;;7.80;56.70;;;;;;5033548;28;21007;-79
2020/12/11 10:46:27;;;;;;;15.57;10.63;;;7.80;57.10;;;;;;5033804;28;20448;-79
2020/12/11 10:48:54;;;;;;;15.00;10.07;;;7.80;56.90;;;;;;5022067;28;20450;-80
2020/12/11 10:51:22;;;;;;;11.50;9.63;;;7.80;56.70;;;;;;5018931;28;20476;-79
2020/12/11 10:53:48;;;;;;;13.10;10.63;;;7.90;56.90;;;;;;5033365;28;20810;-80
2020/12/11 10:56:19;;;;;;;15.10;10.80;;;7.80;56.70;;;;;;5033511;28;20452;-79
2020/12/11 10:58:46;;;;;;;13.00;10.37;;;7.80;56.80;;;;;;5033345;28;20585;-79
2020/12/11 11:01:12;;;;;;;12.13;10.77;;;7.80;57.00;;;;;;5033366;28;20971;-79
2020/12/11 11:03:39;;;;;;;11.83;10.57;;;7.90;57.10;;;;;;5033458;28;20459;-80
2020/12/11 11:06:12;;;;;;;12.13;10.20;;;7.90;56.90;;;;;;5032669;28;20458;-78
2020/12/11 11:08:48;;;;;;;12.20;10.00;;;7.90;56.90;;;;;;5032383;28;20481;-79
2020/12/11 11:11:20;;;;;;;15.57;10.70;;;8.10;56.50;;;;;;5033212;28;20502;-79
2020/12/11 11:13:58;;;;;;;11.80;8.13;;;8.20;56.50;;;;;;5033021;28;20467;-79
2020/12/11 11:16:42;;;;;;;11.70;10.50;;;8.30;56.30;;;;;;5032916;28;20459;-79
2020/12/11 11:19:14;;;;;;;19.20;10.20;;;8.30;56.10;;;;;;5033105;28;20491;-79
2020/12/11 11:25:11;;;;;;;12.73;9.87;;;8.10;56.00;;;;;;5114510;27;980555;-79
2020/12/11 11:27:40;;;;;;;11.10;8.80;;;8.00;55.90;;;;;;5110339;28;20205;-79
2020/12/11 11:30:07;;;;;;;12.63;10.00;;;8.00;55.80;;;;;;5110233;28;20521;-79
2020/12/11 11:32:36;;;;;;;11.73;9.73;;;8.00;55.80;;;;;;5108975;28;20450;-78
2020/12/11 11:35:05;;;;;;;14.43;10.00;;;8.00;56.00;;;;;;5109851;28;20449;-80
2020/12/11 11:37:35;;;;;;;14.00;9.70;;;8.00;56.20;;;;;;5109866;28;20533;-81
2020/12/11 11:40:05;;;;;;;12.90;10.23;;;7.90;56.40;;;;;;5110245;28;20860;-78
2020/12/11 11:42:32;;;;;;;16.20;9.73;;;7.90;56.50;;;;;;5110148;28;20846;-80
2020/12/11 11:45:00;;;;;;;17.73;11.17;;;7.90;56.60;;;;;;5110170;28;20452;-79
2020/12/11 11:47:28;;;;;;;16.50;10.03;;;7.90;56.50;;;;;;5110238;28;20535;-79
2020/12/11 11:50:15;;;;;;;11.63;9.37;;;7.90;56.80;;;;;;5130290;28;20439;-80
2020/12/11 11:52:44;;;;;;;14.47;10.50;;;7.90;56.80;;;;;;5130223;28;20456;-80
2020/12/11 11:55:20;;;;;;;25.53;10.80;;;7.90;57.00;;;;;;5130279;28;20518;-80
2020/12/11 11:57:46;;;;;;;24.73;10.47;;;8.00;57.20;;;;;;5130434;28;20454;-80
2020/12/11 12:00:13;;;;;;;11.27;9.80;;;8.00;57.10;;;;;;5128453;28;20947;-80
2020/12/11 12:02:48;;;;;;;10.43;9.33;;;8.00;56.80;;;;;;5130088;28;20483;-79
2020/12/11 12:05:17;;;;;;;12.60;9.20;;;8.00;56.80;;;;;;5130053;28;20961;-79
2020/12/11 12:07:44;;;;;;;17.07;9.20;;;8.00;56.80;;;;;;5129954;28;20447;-80
2020/12/11 12:10:14;;;;;;;17.40;11.60;;;8.00;56.80;;;;;;5129843;28;20811;-79
2020/12/11 12:12:43;;;;;;;17.47;9.70;;;8.10;56.90;;;;;;5127637;28;20509;-79
2020/12/11 12:15:14;;;;;;;12.73;9.40;;;8.20;57.20;;;;;;5129824;28;20463;-79
2020/12/11 12:17:46;;;;;;;16.10;11.70;;;8.30;56.80;;;;;;5128861;28;22208;-79
2020/12/11 12:20:24;;;;;;;13.27;10.70;;;8.30;56.80;;;;;;5129318;28;20507;-79
2020/12/11 12:31:26;;;;;;;19.37;10.70;;;8.20;56.60;;;;;;5124015;28;20514;-79
2020/12/11 12:42:39;;;;;;;12.13;10.47;;;8.10;57.50;;;;;;5113720;28;20520;-79
2020/12/11 12:45:09;;;;;;;15.97;10.17;;;8.20;57.50;;;;;;5097114;28;20816;-81
2020/12/11 12:47:37;;;;;;;15.20;10.70;;;8.20;57.50;;;;;;5098855;28;20489;-80
2020/12/11 12:50:04;;;;;;;11.60;8.80;;;8.30;57.50;;;;;;5114760;28;20465;-78
2020/12/11 12:52:30;;;;;;;16.30;10.43;;;8.20;57.30;;;;;;5111643;28;20464;-80
2020/12/11 12:54:57;;;;;;;12.20;10.87;;;8.20;57.30;;;;;;5098191;28;20818;-79
2020/12/11 12:57:28;;;;;;;15.37;11.60;;;8.10;57.60;;;;;;5106450;28;20443;-79
2020/12/11 12:59:59;;;;;;;14.23;9.97;;;8.10;57.70;;;;;;5096650;28;20455;-80
2020/12/11 13:05:12;;;;;;;16.27;10.40;;;8.10;57.80;;;;;;5072478;28;20439;-82
2020/12/11 13:07:39;;;;;;;16.77;11.23;;;8.10;57.90;;;;;;5113709;28;20819;-82
2020/12/11 13:10:08;;;;;;;14.87;11.70;;;8.10;58.00;;;;;;5097478;28;20448;-79
2020/12/11 13:12:36;;;;;;;12.20;10.20;;;8.20;58.10;;;;;;5113913;28;20430;-79
2020/12/11 13:15:03;;;;;;;12.13;10.10;;;8.20;58.00;;;;;;5096230;28;20452;-79
2020/12/11 13:17:32;;;;;;;13.57;10.80;;;8.10;57.70;;;;;;5114842;28;20460;-80